Weather at Rivère l'Acadie Water Aerodrome [CLOSED]

Public forecast

Using degrees Celsius for public forecast. Weather courtesy of forecast.io.

Closest aviation weather report (METAR) to Rivère l'Acadie Water Aerodrome

Closest report is Montréal / Saint-Hubert Airport, 5.0 nm (9.4 km) WNW.

2024/05/30 10:00 (retrieved 50 minutes ago)

CYHU 301000Z AUTO VRB02KT 9SM CLR 09/05 A3002 RMK SLP168

Closest aviation forecast (TAF) to Rivère l'Acadie Water Aerodrome

Closest forecast is Montréal / Saint-Hubert Airport, 5.0 nm (9.4 km) WNW.

2024/05/30 06:42 (retrieved 4 hours ago)

TAF CYHU 300540Z 3006/3106 33007KT P6SM FEW240 FM300900 01008KT P6SM SKC FM301700 33010KT P6SM FEW060 RMK FCST BASED ON AUTO OBS NXT FCST BY 301200Z